< < Back
Terminal Aerodrome Forecast


Current Version              Previous Versions:   1  2  3  4  5  6  7  8  9  

Terminal Aerodrome Forecast

965
FTUS44 KMOB 291700
TAFMOB
TAF
KMOB 291734Z 2918/3018 03008KT 5SM HZ VCSH SCT014 OVC022
     FM300000 04004KT 4SM BR OVC007
     FM301000 05005KT 2SM BR OVC004
     FM301400 05006KT P6SM SCT009 BKN015=

Latest METAR

355
SAUS80 KWBC 301000 RRA
MTRMOB
METAR KMOB 300956Z AUTO 36003KT 7SM CLR 21/21 A2989 RMK AO2 SLP118
T02060206


USA.gov is the U.S. government's official web portal to all federal, state and local government web resources and services.